createdAt,value
2022-11-22T00:00:40.687Z,98016.08
2022-11-22T00:02:45.880Z,98010.61
2022-11-22T00:04:50.562Z,98006.70
2022-11-22T00:06:57.835Z,98001.98
2022-11-22T00:09:02.589Z,97998.73
2022-11-22T00:11:07.237Z,97997.61
2022-11-22T00:13:11.911Z,98003.20
2022-11-22T00:15:16.582Z,97999.59
2022-11-22T00:17:21.226Z,97996.91
2022-11-22T00:19:25.842Z,97998.50
2022-11-22T00:21:30.402Z,97996.96
2022-11-22T00:23:35.263Z,97990.20
2022-11-22T00:25:39.890Z,97987.48
2022-11-22T00:27:44.598Z,97986.47
2022-11-22T00:29:49.181Z,97979.90
2022-11-22T00:31:53.780Z,97975.62
2022-11-22T00:33:58.618Z,97974.10
2022-11-22T00:36:03.307Z,97970.55
2022-11-22T00:38:07.916Z,97969.81
2022-11-22T00:40:13.314Z,97970.78
2022-11-22T00:42:18.135Z,97973.57
2022-11-22T00:44:22.714Z,97974.98
2022-11-22T00:46:27.601Z,97972.91
2022-11-22T00:48:32.465Z,97968.95
2022-11-22T00:50:37.057Z,97969.74
2022-11-22T00:52:41.713Z,97970.23
2022-11-22T00:54:51.487Z,97965.63
2022-11-22T00:56:59.087Z,97966.40
2022-11-22T00:59:03.818Z,97965.06
2022-11-22T01:01:08.517Z,97965.27
2022-11-22T01:03:13.975Z,97966.44
2022-11-22T01:05:18.845Z,97965.39
2022-11-22T01:07:23.686Z,97970.02
2022-11-22T01:09:28.575Z,97968.61
2022-11-22T01:11:33.463Z,97971.09
2022-11-22T01:13:38.124Z,97969.33
2022-11-22T01:15:42.725Z,97967.56
2022-11-22T01:17:47.330Z,97966.27
2022-11-22T01:19:52.151Z,97959.79
2022-11-22T01:21:56.762Z,97953.44
2022-11-22T01:24:01.412Z,97949.81
2022-11-22T01:26:08.749Z,97946.27
2022-11-22T01:28:13.625Z,97944.54
2022-11-22T01:30:18.958Z,97944.02
2022-11-22T01:32:23.586Z,97940.63
2022-11-22T01:34:28.310Z,97936.25
2022-11-22T01:36:33.027Z,97936.62
2022-11-22T01:38:37.830Z,97929.12
2022-11-22T01:40:42.683Z,97922.80
2022-11-22T01:42:52.982Z,97920.89
2022-11-22T01:45:11.063Z,97917.73
2022-11-22T01:47:19.952Z,97921.23
2022-11-22T01:49:31.225Z,97920.39
2022-11-22T01:51:39.775Z,97917.52
2022-11-22T01:53:44.888Z,97919.52
2022-11-22T01:55:51.179Z,97912.14
2022-11-22T01:57:58.877Z,97908.89
2022-11-22T02:00:12.794Z,97912.59
2022-11-22T02:02:22.943Z,97910.00
2022-11-22T02:04:32.601Z,97908.56
2022-11-22T02:06:47.107Z,97907.41
2022-11-22T02:08:59.595Z,97909.35
2022-11-22T02:11:05.742Z,97901.55
2022-11-22T02:13:12.786Z,97903.76
2022-11-22T02:15:17.970Z,97901.91
2022-11-22T02:17:24.876Z,97896.73
2022-11-22T02:19:39.220Z,97895.36
2022-11-22T02:21:49.183Z,97888.08
2022-11-22T02:24:01.542Z,97886.89
2022-11-22T02:26:06.574Z,97884.52
2022-11-22T02:28:12.799Z,97880.98
2022-11-22T02:30:18.425Z,97882.48
2022-11-22T02:32:23.041Z,97884.02
2022-11-22T02:34:27.655Z,97885.50
2022-11-22T02:36:35.923Z,97878.23
2022-11-22T02:38:40.684Z,97872.61
2022-11-22T02:40:51.306Z,97872.17
2022-11-22T02:43:00.149Z,97867.88
2022-11-22T02:45:05.768Z,97862.09
2022-11-22T02:47:10.686Z,97862.63
2022-11-22T02:49:18.327Z,97864.50
2022-11-22T02:51:23.127Z,97864.24
2022-11-22T02:53:29.856Z,97859.77
2022-11-22T02:55:35.032Z,97856.83
2022-11-22T02:57:39.821Z,97849.17
2022-11-22T02:59:44.612Z,97848.13
2022-11-22T03:01:49.351Z,97848.79
2022-11-22T03:03:54.012Z,97845.09
2022-11-22T03:05:58.706Z,97846.27
2022-11-22T03:08:03.334Z,97843.81
2022-11-22T03:10:09.125Z,97838.70
2022-11-22T03:12:13.837Z,97833.67
2022-11-22T03:14:18.593Z,97832.95
2022-11-22T03:16:23.237Z,97828.54
2022-11-22T03:18:27.964Z,97831.58
2022-11-22T03:20:33.146Z,97831.98
2022-11-22T03:22:37.859Z,97828.35
2022-11-22T03:24:42.855Z,97827.20
2022-11-22T03:26:50.135Z,97815.64
2022-11-22T03:28:54.859Z,97808.34
2022-11-22T03:30:59.595Z,97810.73
2022-11-22T03:33:04.353Z,97813.95
2022-11-22T03:35:10.648Z,97819.95
2022-11-22T03:37:15.264Z,97815.80
2022-11-22T03:39:19.907Z,97812.46
2022-11-22T03:41:24.685Z,97808.39
2022-11-22T03:43:29.429Z,97816.38
2022-11-22T03:45:34.128Z,97816.39
2022-11-22T03:47:38.693Z,97813.30
2022-11-22T03:49:43.326Z,97810.98
2022-11-22T03:51:47.986Z,97806.40
2022-11-22T03:53:52.743Z,97797.11
2022-11-22T03:55:57.447Z,97793.21
2022-11-22T03:58:02.116Z,97800.14
2022-11-22T04:00:09.206Z,97796.42
2022-11-22T04:02:16.544Z,97793.06
2022-11-22T04:04:21.302Z,97789.15
2022-11-22T04:06:27.049Z,97783.97
2022-11-22T04:08:31.726Z,97782.91
2022-11-22T04:10:36.527Z,97779.73
2022-11-22T04:12:41.171Z,97781.93
2022-11-22T04:14:45.805Z,97786.92
2022-11-22T04:16:50.413Z,97789.41
2022-11-22T04:18:55.139Z,97786.84
2022-11-22T04:20:59.767Z,97783.23
2022-11-22T04:23:06.158Z,97780.19
2022-11-22T04:25:11.204Z,97786.11
2022-11-22T04:27:16.000Z,97784.00
2022-11-22T04:29:21.274Z,97770.19
2022-11-22T04:31:25.966Z,97768.44
2022-11-22T04:33:30.911Z,97769.77
2022-11-22T04:35:35.530Z,97768.77
2022-11-22T04:37:40.192Z,97767.75
2022-11-22T04:39:44.882Z,97767.44
2022-11-22T04:41:51.448Z,97765.24
2022-11-22T04:43:56.179Z,97766.23
2022-11-22T04:46:01.540Z,97766.26
2022-11-22T04:48:06.634Z,97760.64
2022-11-22T04:50:11.648Z,97760.05
2022-11-22T04:52:16.327Z,97759.04
2022-11-22T04:54:20.914Z,97759.52
2022-11-22T04:56:25.522Z,97765.49
2022-11-22T04:58:30.216Z,97770.20
2022-11-22T05:00:35.492Z,97769.56
2022-11-22T05:02:40.076Z,97766.72
2022-11-22T05:04:49.239Z,97770.16
2022-11-22T05:06:55.380Z,97765.49
2022-11-22T05:09:00.027Z,97763.63
2022-11-22T05:11:04.689Z,97763.09
2022-11-22T05:13:09.302Z,97757.00
2022-11-22T05:15:14.078Z,97757.61
2022-11-22T05:17:18.731Z,97759.07
2022-11-22T05:19:23.429Z,97756.10
2022-11-22T05:21:29.577Z,97757.43
2022-11-22T05:23:34.237Z,97755.47
2022-11-22T05:25:38.882Z,97747.50
2022-11-22T05:27:43.598Z,97753.80
2022-11-22T05:29:48.325Z,97750.91
2022-11-22T05:31:53.308Z,97753.55
2022-11-22T05:34:01.287Z,97754.09
2022-11-22T05:36:07.523Z,97755.38
2022-11-22T05:38:12.108Z,97757.00
2022-11-22T05:40:17.369Z,97757.16
2022-11-22T05:42:22.011Z,97765.81
2022-11-22T05:44:26.977Z,97764.67
2022-11-22T05:46:31.918Z,97768.94
2022-11-22T05:48:37.308Z,97773.37
2022-11-22T05:50:41.931Z,97766.69
2022-11-22T05:52:46.608Z,97766.45
2022-11-22T05:54:51.232Z,97772.33
2022-11-22T05:56:55.896Z,97771.97
2022-11-22T05:59:00.619Z,97770.70
2022-11-22T06:01:07.328Z,97773.13
2022-11-22T06:03:11.994Z,97769.17
2022-11-22T06:05:16.739Z,97769.30
2022-11-22T06:07:21.390Z,97771.20
2022-11-22T06:09:26.097Z,97767.73
2022-11-22T06:11:30.847Z,97775.41
2022-11-22T06:13:39.787Z,97769.56
2022-11-22T06:15:44.520Z,97772.89
2022-11-22T06:17:49.215Z,97773.30
2022-11-22T06:19:54.055Z,97780.09
2022-11-22T06:21:58.674Z,97784.92
2022-11-22T06:24:03.336Z,97783.65
2022-11-22T06:26:10.415Z,97783.48
2022-11-22T06:28:15.088Z,97787.73
2022-11-22T06:30:20.053Z,97787.85
2022-11-22T06:32:24.734Z,97787.27
2022-11-22T06:34:29.352Z,97793.84
2022-11-22T06:36:35.101Z,97791.79
2022-11-22T06:38:41.559Z,97790.39
2022-11-22T06:40:46.202Z,97797.47
2022-11-22T06:42:53.028Z,97798.61
2022-11-22T06:44:57.732Z,97796.80
2022-11-22T06:47:02.370Z,97793.06
2022-11-22T06:49:06.994Z,97795.55
2022-11-22T06:51:13.990Z,97787.90
2022-11-22T06:53:45.326Z,97791.44
2022-11-22T06:55:51.920Z,97799.56
2022-11-22T06:57:58.058Z,97796.35
2022-11-22T07:00:02.995Z,97798.86
2022-11-22T07:02:10.680Z,97798.59
2022-11-22T07:04:15.387Z,97792.95
2022-11-22T07:06:20.656Z,97798.60
2022-11-22T07:08:25.654Z,97795.55
2022-11-22T07:10:30.423Z,97796.02
2022-11-22T07:12:35.217Z,97797.02
2022-11-22T07:14:39.899Z,97798.90
2022-11-22T07:16:44.576Z,97800.95
2022-11-22T07:18:50.105Z,97809.27
2022-11-22T07:20:59.655Z,97809.44
2022-11-22T07:23:04.383Z,97813.02
2022-11-22T07:25:10.433Z,97816.02
2022-11-22T07:27:15.141Z,97814.50
2022-11-22T07:29:19.785Z,97810.23
2022-11-22T07:31:24.505Z,97815.97
2022-11-22T07:33:29.437Z,97821.92
2022-11-22T07:35:34.192Z,97821.20
2022-11-22T07:37:38.807Z,97819.65
2022-11-22T07:39:43.539Z,97821.20
2022-11-22T07:41:48.300Z,97825.84
2022-11-22T07:43:52.933Z,97823.58
2022-11-22T07:46:01.213Z,97826.07
2022-11-22T07:48:06.543Z,97830.45
2022-11-22T07:50:12.028Z,97827.27
2022-11-22T07:52:16.678Z,97832.23
2022-11-22T07:54:21.313Z,97828.50
2022-11-22T07:56:26.003Z,97834.06
2022-11-22T07:58:30.641Z,97839.67
2022-11-22T08:00:35.277Z,97839.83
2022-11-22T08:02:39.874Z,97840.73
2022-11-22T08:04:44.520Z,97839.92
2022-11-22T08:06:49.271Z,97845.42
2022-11-22T08:09:00.304Z,97846.52
2022-11-22T08:11:07.449Z,97850.77
2022-11-22T08:13:12.060Z,97852.20
2022-11-22T08:15:17.201Z,97853.40
2022-11-22T08:17:21.831Z,97853.77
2022-11-22T08:19:26.409Z,97860.90
2022-11-22T08:21:31.078Z,97871.63
2022-11-22T08:23:35.959Z,97870.09
2022-11-22T08:25:40.565Z,97874.59
2022-11-22T08:27:45.350Z,97876.45
2022-11-22T08:29:50.507Z,97877.64
2022-11-22T08:31:55.228Z,97878.23
2022-11-22T08:33:59.845Z,97876.08
2022-11-22T08:36:08.387Z,97877.48
2022-11-22T08:38:13.055Z,97883.80
2022-11-22T08:40:17.991Z,97888.23
2022-11-22T08:42:22.836Z,97894.13
2022-11-22T08:44:27.355Z,97895.02
2022-11-22T08:46:31.939Z,97895.59
2022-11-22T08:48:38.014Z,97900.31
2022-11-22T08:50:49.104Z,97905.20
2022-11-22T08:52:53.673Z,97907.86
2022-11-22T08:54:58.271Z,97910.33
2022-11-22T08:57:02.934Z,97913.67
2022-11-22T08:59:07.974Z,97918.25
2022-11-22T09:01:14.669Z,97921.15
2022-11-22T09:03:19.355Z,97924.77
2022-11-22T09:05:24.014Z,97926.44
2022-11-22T09:09:53.869Z,97924.67
2022-11-22T09:11:58.538Z,97928.53
2022-11-22T09:14:03.158Z,97923.09
2022-11-22T09:16:10.146Z,97923.61
2022-11-22T09:18:14.740Z,97927.80
2022-11-22T09:20:19.662Z,97926.73
2022-11-22T09:22:28.468Z,97924.95
2022-11-22T09:24:33.357Z,97930.56
2022-11-22T09:26:37.951Z,97922.88
2022-11-22T09:28:42.653Z,97927.74
2022-11-22T09:30:47.236Z,97923.20
2022-11-22T09:32:51.953Z,97928.77
2022-11-22T09:34:56.579Z,97925.13
2022-11-22T09:37:01.955Z,97934.08
2022-11-22T09:39:06.601Z,97937.23
2022-11-22T09:41:24.012Z,97934.44
2022-11-22T09:43:43.628Z,97932.39
2022-11-22T09:46:00.536Z,97928.48
2022-11-22T09:48:18.466Z,97927.83
2022-11-22T09:50:32.583Z,97924.59
2022-11-22T09:52:42.466Z,97922.17
2022-11-22T09:54:51.906Z,97920.34
2022-11-22T09:57:01.435Z,97919.27
2022-11-22T09:59:11.239Z,97919.44
2022-11-22T10:01:20.217Z,97917.98
2022-11-22T10:03:31.955Z,97919.76
2022-11-22T10:05:48.815Z,97910.81
2022-11-22T10:07:59.802Z,97914.52
2022-11-22T10:10:07.900Z,97907.16
2022-11-22T10:12:17.226Z,97909.02
2022-11-22T10:14:34.563Z,97914.98
2022-11-22T10:16:43.037Z,97918.13
2022-11-22T10:18:54.300Z,97916.53
2022-11-22T10:20:59.104Z,97915.76
2022-11-22T10:23:07.222Z,97912.88
2022-11-22T10:25:17.426Z,97910.91
2022-11-22T10:27:22.015Z,97912.67
2022-11-22T10:29:34.274Z,97913.35
2022-11-22T10:31:46.734Z,97906.94
2022-11-22T10:34:00.174Z,97907.06
2022-11-22T10:36:20.059Z,97911.06
2022-11-22T10:38:39.754Z,97911.61
2022-11-22T10:40:54.921Z,97911.23
2022-11-22T10:43:20.275Z,97912.52
2022-11-22T10:45:30.079Z,97911.65
2022-11-22T10:47:52.723Z,97914.88
2022-11-22T10:50:05.251Z,97918.55
2022-11-22T10:52:19.426Z,97920.20
2022-11-22T10:54:34.476Z,97918.80
2022-11-22T10:56:46.136Z,97916.14
2022-11-22T10:59:03.874Z,97914.56
2022-11-22T11:01:18.187Z,97912.98
2022-11-22T11:03:30.209Z,97911.55
2022-11-22T11:06:15.339Z,97913.80
2022-11-22T11:08:39.302Z,97909.33
2022-11-22T11:10:40.587Z,97906.98
2022-11-22T11:12:49.948Z,97911.30
2022-11-22T11:14:59.526Z,97916.09
2022-11-22T11:17:05.172Z,97917.28
2022-11-22T11:19:19.163Z,97913.05
2022-11-22T11:21:23.822Z,97912.48
2022-11-22T11:23:28.476Z,97910.43
2022-11-22T11:25:34.968Z,97906.14
2022-11-22T11:27:42.775Z,97901.30
2022-11-22T11:29:51.089Z,97899.30
2022-11-22T11:32:08.949Z,97896.48
2022-11-22T11:34:22.453Z,97894.73
2022-11-22T11:36:27.384Z,97891.36
2022-11-22T11:38:34.925Z,97892.52
2022-11-22T11:40:39.547Z,97902.54
2022-11-22T11:42:44.174Z,97907.73
2022-11-22T11:44:48.890Z,97908.12
2022-11-22T11:46:53.514Z,97906.91
2022-11-22T11:49:10.807Z,97901.90
2022-11-22T11:51:23.128Z,97899.79
2022-11-22T11:53:27.973Z,97897.01
2022-11-22T11:55:35.130Z,97893.19
2022-11-22T11:57:44.809Z,97887.29
2022-11-22T11:59:50.797Z,97884.23
2022-11-22T12:02:02.509Z,97878.99
2022-11-22T12:04:16.417Z,97879.33
2022-11-22T12:06:21.087Z,97881.61
2022-11-22T12:08:31.356Z,97883.83
2022-11-22T12:10:43.966Z,97886.08
2022-11-22T12:12:52.657Z,97891.39
2022-11-22T12:15:12.044Z,97887.91
2022-11-22T12:17:24.796Z,97885.79
2022-11-22T12:19:35.785Z,97884.70
2022-11-22T12:21:49.224Z,97883.64
2022-11-22T12:24:19.877Z,97878.20
2022-11-22T12:26:25.721Z,97881.85
2022-11-22T12:28:30.822Z,97887.14
2022-11-22T12:30:37.167Z,97882.55
2022-11-22T12:32:45.707Z,97885.55
2022-11-22T12:34:56.888Z,97884.58
2022-11-22T12:37:07.763Z,97886.64
2022-11-22T12:39:15.824Z,97887.98
2022-11-22T12:41:27.733Z,97893.59
2022-11-22T12:43:37.767Z,97894.65
2022-11-22T12:45:46.557Z,97894.50
2022-11-22T12:47:52.849Z,97892.89
2022-11-22T12:50:02.281Z,97897.03
2022-11-22T12:52:13.705Z,97897.58
2022-11-22T12:54:20.949Z,97898.73
2022-11-22T12:56:33.732Z,97895.98
2022-11-22T12:58:43.520Z,97893.74
2022-11-22T13:01:00.676Z,97902.73
2022-11-22T13:03:12.814Z,97905.21
2022-11-22T13:05:21.840Z,97907.16
2022-11-22T13:07:36.370Z,97903.59
2022-11-22T13:09:47.964Z,97903.30
2022-11-22T13:11:58.918Z,97903.75
2022-11-22T13:14:07.707Z,97902.33
2022-11-22T13:16:13.518Z,97904.95
2022-11-22T13:18:18.930Z,97906.73
2022-11-22T13:20:26.517Z,97907.68
2022-11-22T13:22:35.902Z,97906.98
2022-11-22T13:24:55.638Z,97908.26
2022-11-22T13:27:09.796Z,97912.05
2022-11-22T13:29:23.731Z,97914.98
2022-11-22T13:31:28.462Z,97914.00
2022-11-22T13:33:33.734Z,97914.72
2022-11-22T13:35:39.333Z,97915.38
2022-11-22T13:37:46.548Z,97915.70
2022-11-22T13:39:51.494Z,97914.69
2022-11-22T13:42:07.323Z,97915.26
2022-11-22T13:44:35.337Z,97911.06
2022-11-22T13:46:59.754Z,97913.58
2022-11-22T13:49:15.626Z,97910.48
2022-11-22T13:51:56.945Z,97913.87
2022-11-22T13:54:34.606Z,97911.79
2022-11-22T13:57:01.621Z,97911.10
2022-11-22T13:59:15.355Z,97908.62
2022-11-22T14:01:52.742Z,97912.15
2022-11-22T14:04:27.087Z,97914.64
2022-11-22T14:06:31.981Z,97916.81
2022-11-22T14:08:38.331Z,97915.05
2022-11-22T14:11:02.090Z,97917.89
2022-11-22T14:13:34.228Z,97922.16
2022-11-22T14:16:00.799Z,97924.55
2022-11-22T14:18:27.395Z,97930.41
2022-11-22T14:20:42.518Z,97930.48
2022-11-22T14:22:56.677Z,97934.09
2022-11-22T14:25:21.937Z,97939.67
2022-11-22T14:27:38.319Z,97941.68
2022-11-22T14:30:15.787Z,97945.75
2022-11-22T14:32:21.697Z,97946.63
2022-11-22T14:34:28.195Z,97944.40
2022-11-22T14:36:32.882Z,97947.52
2022-11-22T14:38:37.971Z,97948.34
2022-11-22T14:40:42.835Z,97949.68
2022-11-22T14:43:06.114Z,97946.42
2022-11-22T14:45:22.894Z,97944.84
2022-11-22T14:47:28.206Z,97945.61
2022-11-22T14:49:42.436Z,97947.94
2022-11-22T14:51:51.464Z,97949.23
2022-11-22T14:53:59.616Z,97953.66
2022-11-22T14:56:14.570Z,97956.10
2022-11-22T14:58:24.612Z,97955.59
2022-11-22T15:00:41.457Z,97954.63
2022-11-22T15:03:43.364Z,97951.48
2022-11-22T15:09:15.363Z,97956.34
2022-11-22T15:09:28.394Z,97955.44
2022-11-22T15:11:21.633Z,97951.47
2022-11-22T15:13:38.331Z,97952.71
2022-11-22T15:57:50.865Z,97993.17
2022-11-22T15:59:56.021Z,97993.93
2022-11-22T16:02:01.721Z,97995.83
2022-11-22T16:04:14.717Z,97994.98
2022-11-22T16:06:24.229Z,97992.15
2022-11-22T16:08:32.645Z,97985.91
2022-11-22T16:10:39.806Z,97986.27
2022-11-22T16:12:44.609Z,97990.27
2022-11-22T16:14:53.397Z,97985.16
2022-11-22T16:17:16.564Z,97986.90
2022-11-22T16:19:23.732Z,97986.11
2022-11-22T16:21:30.383Z,97990.23
2022-11-22T16:23:42.379Z,97989.33
2022-11-22T16:25:50.339Z,97989.03
2022-11-22T16:27:55.041Z,97986.38
2022-11-22T16:30:09.094Z,97990.77
2022-11-22T16:32:15.882Z,97994.70
2022-11-22T16:34:21.263Z,97995.71
2022-11-22T16:36:30.780Z,97996.81
2022-11-22T16:38:36.490Z,97999.83
2022-11-22T16:40:44.164Z,98005.06
2022-11-22T16:42:49.722Z,98006.63
2022-11-22T16:45:00.952Z,98007.63
2022-11-22T16:47:15.145Z,98007.10
2022-11-22T16:49:22.933Z,98004.19
2022-11-22T16:51:29.442Z,98002.12
2022-11-22T16:53:43.244Z,98004.47
2022-11-22T16:55:49.343Z,98003.93
2022-11-22T16:57:56.203Z,98005.05
2022-11-22T17:00:01.367Z,98007.52
2022-11-22T17:02:12.052Z,98009.35
2022-11-22T17:04:23.659Z,98006.90
2022-11-22T17:06:30.931Z,98009.61
2022-11-22T17:08:37.403Z,98013.06
2022-11-22T17:10:47.099Z,98014.51
2022-11-22T17:12:52.210Z,98023.27
2022-11-22T17:14:57.465Z,98022.09
2022-11-22T17:17:05.488Z,98022.48
2022-11-22T17:19:37.576Z,98027.54
2022-11-22T17:21:38.339Z,98031.11
2022-11-22T17:23:45.110Z,98031.36
2022-11-22T17:25:50.610Z,98032.07
2022-11-22T17:27:55.783Z,98030.06
2022-11-22T17:30:00.999Z,98029.45
2022-11-22T17:32:10.641Z,98028.04
2022-11-22T17:34:16.424Z,98027.20
2022-11-22T17:36:29.640Z,98032.75
2022-11-22T17:38:38.572Z,98036.58
2022-11-22T17:40:44.442Z,98040.16
2022-11-22T17:42:51.787Z,98042.60
2022-11-22T17:44:57.593Z,98046.18
2022-11-22T17:47:04.359Z,98047.80
2022-11-22T17:49:15.498Z,98049.75
2022-11-22T17:51:22.557Z,98050.90
2022-11-22T17:53:29.351Z,98051.77
2022-11-22T17:56:09.035Z,98046.91
2022-11-22T17:58:08.441Z,98050.00
2022-11-22T18:00:19.195Z,98050.58
2022-11-22T18:02:25.584Z,98053.17
2022-11-22T18:04:32.283Z,98052.82
2022-11-22T18:06:38.220Z,98055.09
2022-11-22T18:08:47.181Z,98057.66
2022-11-22T18:10:57.043Z,98058.30
2022-11-22T18:13:20.736Z,98056.19
2022-11-22T18:15:28.544Z,98060.85
2022-11-22T18:17:43.600Z,98057.20
2022-11-22T18:19:50.272Z,98057.73
2022-11-22T18:21:56.718Z,98051.75
2022-11-22T18:24:03.210Z,98057.41
2022-11-22T18:29:02.460Z,98058.79
2022-11-22T18:31:12.272Z,98065.38
2022-11-22T18:33:18.717Z,98062.36
2022-11-22T18:35:28.008Z,98059.43
2022-11-22T18:37:40.017Z,98057.08
2022-11-22T18:39:45.316Z,98057.81
2022-11-22T18:41:51.322Z,98055.53
2022-11-22T18:43:59.142Z,98060.46
2022-11-22T18:46:06.601Z,98056.39
2022-11-22T18:48:12.704Z,98063.59
2022-11-22T18:50:18.748Z,98061.14
2022-11-22T18:52:27.479Z,98064.64
2022-11-22T18:54:35.083Z,98064.02
2022-11-22T18:56:41.251Z,98062.73
2022-11-22T18:58:47.685Z,98063.75
2022-11-22T19:00:56.204Z,98062.56
2022-11-22T19:03:02.843Z,98061.10
2022-11-22T19:05:27.523Z,98060.86
2022-11-22T19:07:33.770Z,98061.34
2022-11-22T19:09:44.695Z,98063.78
2022-11-22T19:11:55.560Z,98067.61
2022-11-22T19:14:06.387Z,98063.22
2022-11-22T19:16:15.375Z,98063.14
2022-11-22T19:18:21.280Z,98063.27
2022-11-22T19:20:53.357Z,98064.11
2022-11-22T19:22:52.432Z,98068.31
2022-11-22T19:24:59.072Z,98074.13
2022-11-22T19:27:06.722Z,98073.23
2022-11-22T19:29:13.412Z,98069.20
2022-11-22T19:31:21.840Z,98070.46
2022-11-22T19:33:31.739Z,98073.19
2022-11-22T19:35:38.901Z,98073.30
2022-11-22T19:37:45.768Z,98074.53
2022-11-22T19:39:52.230Z,98071.35
2022-11-22T19:42:00.002Z,98071.92
2022-11-22T19:44:06.459Z,98074.84
2022-11-22T19:46:13.203Z,98082.71
2022-11-22T19:48:22.875Z,98080.02
2022-11-22T19:50:33.366Z,98074.73
2022-11-22T19:52:45.011Z,98074.37
2022-11-22T19:54:52.275Z,98078.02
2022-11-22T19:56:58.921Z,98075.19
2022-11-22T19:59:07.081Z,98077.09
2022-11-22T20:01:14.171Z,98070.74
2022-11-22T20:03:22.247Z,98067.27
2022-11-22T20:05:31.413Z,98067.46
2022-11-22T20:07:38.327Z,98064.23
2022-11-22T20:09:45.149Z,98061.02
2022-11-22T20:11:51.535Z,98062.68
2022-11-22T20:13:58.368Z,98064.16
2022-11-22T20:16:11.558Z,98059.85
2022-11-22T20:18:19.774Z,98061.96
2022-11-22T20:20:26.039Z,98059.02
2022-11-22T20:22:36.027Z,98058.35
2022-11-22T20:24:42.801Z,98055.95
2022-11-22T20:26:48.815Z,98058.18
2022-11-22T20:29:01.110Z,98056.88
2022-11-22T20:31:16.052Z,98057.29
2022-11-22T20:33:23.423Z,98055.29
2022-11-22T20:35:29.905Z,98060.32
2022-11-22T20:37:35.610Z,98057.23
2022-11-22T20:39:40.964Z,98051.27
2022-11-22T20:41:51.484Z,98056.59
2022-11-22T20:44:11.657Z,98056.23
2022-11-22T20:46:20.149Z,98059.88
2022-11-22T20:48:25.910Z,98053.54
2022-11-22T20:50:32.228Z,98056.11
2022-11-22T20:52:38.995Z,98055.50
2022-11-22T20:54:48.234Z,98058.09
2022-11-22T20:56:59.479Z,98061.83
2022-11-22T20:59:08.965Z,98065.23
2022-11-22T21:01:18.195Z,98065.73
2022-11-22T21:03:25.373Z,98064.75
2022-11-22T21:05:31.912Z,98063.85
2022-11-22T21:07:39.295Z,98068.66
2022-11-22T21:09:45.309Z,98064.44
2022-11-22T21:11:51.903Z,98065.73
2022-11-22T21:13:58.544Z,98067.73
2022-11-22T21:16:21.522Z,98065.04
2022-11-22T21:18:29.144Z,98060.91
2022-11-22T21:20:34.946Z,98065.44
2022-11-22T21:22:42.889Z,98061.55
2022-11-22T21:24:47.719Z,98066.66
2022-11-22T21:26:52.796Z,98069.02
2022-11-22T21:28:58.953Z,98072.00
2022-11-22T21:31:05.018Z,98070.29
2022-11-22T21:33:10.121Z,98074.10
2022-11-22T21:35:14.878Z,98068.73
2022-11-22T21:37:19.691Z,98073.08
2022-11-22T21:39:24.494Z,98073.48
2022-11-22T21:41:39.682Z,98071.46
2022-11-22T21:43:50.030Z,98069.52
2022-11-22T21:45:56.158Z,98071.71
2022-11-22T21:48:00.822Z,98072.42
2022-11-22T21:50:11.424Z,98074.20
2022-11-22T21:52:16.704Z,98077.26
2022-11-22T21:54:21.414Z,98073.38
2022-11-22T21:56:26.482Z,98073.83
2022-11-22T21:58:31.142Z,98075.20
2022-11-22T22:00:35.801Z,98077.39
2022-11-22T22:02:40.418Z,98077.30
2022-11-22T22:04:45.102Z,98080.96
2022-11-22T22:06:49.887Z,98085.84
2022-11-22T22:08:54.715Z,98087.17
2022-11-22T22:10:59.326Z,98085.16
2022-11-22T22:13:03.959Z,98087.71
2022-11-22T22:15:10.994Z,98084.31
2022-11-22T22:17:15.635Z,98084.44
2022-11-22T22:19:20.634Z,98085.11
2022-11-22T22:21:26.560Z,98084.66
2022-11-22T22:23:31.354Z,98087.71
2022-11-22T22:25:38.377Z,98084.73
2022-11-22T22:27:43.200Z,98086.13
2022-11-22T22:29:47.891Z,98090.95
2022-11-22T22:31:52.617Z,98089.75
2022-11-22T22:33:57.877Z,98096.94
2022-11-22T22:36:03.001Z,98090.35
2022-11-22T22:38:07.700Z,98095.02
2022-11-22T22:40:13.214Z,98095.30
2022-11-22T22:42:18.027Z,98097.08
2022-11-22T22:44:22.803Z,98099.17
2022-11-22T22:46:27.725Z,98098.30
2022-11-22T22:48:32.808Z,98096.30
2022-11-22T22:50:37.603Z,98100.85
2022-11-22T22:52:42.327Z,98091.23
2022-11-22T22:54:46.916Z,98092.69
2022-11-22T22:56:51.644Z,98090.05
2022-11-22T22:58:57.098Z,98090.73
2022-11-22T23:01:08.513Z,98096.16
2022-11-22T23:03:13.183Z,98094.86
2022-11-22T23:05:18.114Z,98092.77
2022-11-22T23:07:22.749Z,98094.77
2022-11-22T23:09:30.416Z,98099.88
2022-11-22T23:11:35.613Z,98101.80
2022-11-22T23:13:42.094Z,98105.83
2022-11-22T23:15:57.948Z,98105.40
2022-11-22T23:18:03.399Z,98115.23
2022-11-22T23:20:09.181Z,98114.90
2022-11-22T23:22:13.818Z,98111.80
2022-11-22T23:24:18.692Z,98112.40
2022-11-22T23:26:23.312Z,98111.39
2022-11-22T23:28:28.260Z,98108.05
2022-11-22T23:30:32.839Z,98104.86
2022-11-22T23:32:40.191Z,98107.65
2022-11-22T23:34:44.830Z,98112.27
2022-11-22T23:36:49.527Z,98112.98
2022-11-22T23:38:54.279Z,98116.71
2022-11-22T23:40:59.164Z,98113.94
2022-11-22T23:43:03.801Z,98116.36
2022-11-22T23:45:10.543Z,98113.27
2022-11-22T23:47:15.181Z,98110.53
2022-11-22T23:49:19.828Z,98113.64
2022-11-22T23:51:25.627Z,98110.91
2022-11-22T23:53:30.208Z,98108.40
2022-11-22T23:55:34.855Z,98107.95
2022-11-22T23:57:39.446Z,98107.31
2022-11-22T23:59:44.081Z,98101.98
